createdAt,value
2023-03-25T00:02:23.342Z,10.65
2023-03-25T00:04:52.636Z,10.52
2023-03-25T00:07:21.756Z,10.60
2023-03-25T00:09:51.369Z,10.77
2023-03-25T00:12:19.705Z,10.73
2023-03-25T00:14:54.435Z,10.57
2023-03-25T00:17:23.588Z,10.26
2023-03-25T00:19:52.105Z,10.61
2023-03-25T00:22:20.522Z,10.37
2023-03-25T00:24:48.492Z,10.55
2023-03-25T00:27:18.437Z,10.65
2023-03-25T00:29:47.158Z,10.72
2023-03-25T00:32:17.136Z,10.51
2023-03-25T00:34:47.379Z,10.90
2023-03-25T00:37:17.720Z,11.02
2023-03-25T00:39:46.201Z,11.11
2023-03-25T00:42:26.028Z,10.16
2023-03-25T00:44:54.681Z,10.79
2023-03-25T00:47:24.471Z,10.95
2023-03-25T00:49:52.709Z,10.90
2023-03-25T00:52:23.076Z,10.98
2023-03-25T00:54:52.799Z,11.03
2023-03-25T00:57:23.634Z,11.15
2023-03-25T00:59:51.663Z,10.94
2023-03-25T01:02:21.432Z,11.06
2023-03-25T01:04:50.686Z,11.00
2023-03-25T01:07:18.758Z,10.41
2023-03-25T01:09:47.506Z,10.90
2023-03-25T01:12:16.914Z,10.75
2023-03-25T01:14:46.163Z,10.98
2023-03-25T01:17:15.976Z,10.90
2023-03-25T01:19:43.857Z,10.80
2023-03-25T01:22:11.738Z,10.94
2023-03-25T01:24:39.715Z,10.74
2023-03-25T01:27:08.552Z,10.62
2023-03-25T01:29:36.553Z,10.83
2023-03-25T01:32:06.172Z,10.60
2023-03-25T01:34:38.497Z,10.56
2023-03-25T01:37:06.641Z,10.70
2023-03-25T01:39:34.730Z,10.49
2023-03-25T01:42:02.783Z,10.43
2023-03-25T01:45:07.911Z,10.42
2023-03-25T01:47:37.178Z,10.47
2023-03-25T01:50:05.732Z,10.20
2023-03-25T01:52:33.532Z,10.46
2023-03-25T01:55:01.591Z,9.92
2023-03-25T01:57:31.538Z,10.42
2023-03-25T01:59:59.811Z,10.32
2023-03-25T02:02:34.897Z,10.39
2023-03-25T02:05:10.930Z,10.47
2023-03-25T02:07:46.773Z,10.34
2023-03-25T02:10:15.457Z,10.48
2023-03-25T02:12:45.677Z,10.35
2023-03-25T02:15:16.095Z,10.49
2023-03-25T02:17:59.500Z,10.47
2023-03-25T02:21:02.902Z,10.50
2023-03-25T02:24:07.326Z,10.64
2023-03-25T02:27:15.375Z,10.57
2023-03-25T02:30:06.925Z,10.57
2023-03-25T02:32:56.932Z,10.33
2023-03-25T02:35:36.341Z,10.53
2023-03-25T02:38:31.258Z,10.47
2023-03-25T02:41:05.315Z,10.59
2023-03-25T02:43:43.089Z,10.35
2023-03-25T02:46:16.567Z,10.36
2023-03-25T02:48:54.838Z,10.50
2023-03-25T02:51:29.347Z,10.57
2023-03-25T02:54:03.849Z,10.23
2023-03-25T02:56:33.504Z,10.02
2023-03-25T02:59:03.862Z,10.50
2023-03-25T03:01:35.124Z,10.45
2023-03-25T03:04:03.910Z,10.46
2023-03-25T03:06:42.765Z,10.37
2023-03-25T03:09:35.484Z,10.42
2023-03-25T03:12:16.817Z,10.50
2023-03-25T03:15:04.847Z,10.48
2023-03-25T03:17:41.976Z,10.14
2023-03-25T03:20:17.753Z,10.53
2023-03-25T03:22:52.615Z,10.58
2023-03-25T03:25:29.449Z,10.48
2023-03-25T03:28:04.611Z,10.60
2023-03-25T03:30:39.218Z,10.26
2023-03-25T03:33:13.508Z,10.37
2023-03-25T03:35:50.362Z,10.42
2023-03-25T03:38:23.946Z,10.41
2023-03-25T03:40:57.197Z,10.13
2023-03-25T03:43:28.360Z,10.27
2023-03-25T03:46:00.744Z,9.74
2023-03-25T03:48:35.302Z,10.07
2023-03-25T03:51:08.765Z,10.27
2023-03-25T03:53:41.295Z,10.46
2023-03-25T03:56:14.771Z,10.46
2023-03-25T03:58:43.935Z,10.48
2023-03-25T04:01:15.027Z,10.37
2023-03-25T04:03:48.592Z,10.36
2023-03-25T04:06:22.099Z,10.54
2023-03-25T04:08:58.824Z,10.31
2023-03-25T04:11:32.179Z,10.29
2023-03-25T04:14:03.942Z,10.40
2023-03-25T04:16:34.669Z,10.44
2023-03-25T04:19:05.487Z,10.28
2023-03-25T04:21:34.046Z,10.35
2023-03-25T04:24:01.876Z,10.41
2023-03-25T04:26:34.164Z,10.37
2023-03-25T04:29:03.710Z,9.83
2023-03-25T04:31:32.122Z,10.39
2023-03-25T04:34:02.206Z,10.32
2023-03-25T04:36:33.551Z,10.18
2023-03-25T04:39:01.360Z,10.37
2023-03-25T04:41:29.219Z,10.21
2023-03-25T04:43:58.448Z,10.42
2023-03-25T04:46:26.869Z,10.16
2023-03-25T04:48:56.867Z,10.12
2023-03-25T04:51:24.916Z,10.25
2023-03-25T04:53:52.710Z,10.43
2023-03-25T04:56:20.695Z,10.36
2023-03-25T04:58:48.627Z,10.38
2023-03-25T05:01:23.952Z,10.37
2023-03-25T05:03:51.819Z,10.40
2023-03-25T05:06:19.728Z,10.34
2023-03-25T05:08:47.535Z,10.34
2023-03-25T05:11:15.378Z,9.87
2023-03-25T05:13:43.197Z,10.44
2023-03-25T05:16:11.057Z,10.20
2023-03-25T05:18:40.288Z,10.47
2023-03-25T05:21:08.785Z,10.36
2023-03-25T05:23:36.610Z,10.04
2023-03-25T05:26:06.314Z,9.95
2023-03-25T05:28:34.269Z,10.20
2023-03-25T05:31:08.186Z,9.84
2023-03-25T05:33:37.084Z,10.28
2023-03-25T05:36:09.180Z,10.28
2023-03-25T05:38:37.424Z,10.00
2023-03-25T05:41:05.195Z,10.08
2023-03-25T05:43:35.726Z,10.03
2023-03-25T05:46:04.607Z,9.92
2023-03-25T05:48:33.230Z,10.29
2023-03-25T05:51:04.616Z,10.22
2023-03-25T05:53:33.822Z,10.26
2023-03-25T05:56:01.803Z,10.40
2023-03-25T05:58:29.775Z,10.10
2023-03-25T06:00:57.649Z,10.24
2023-03-25T06:03:26.100Z,10.45
2023-03-25T06:05:54.197Z,10.43
2023-03-25T06:08:26.348Z,10.48
2023-03-25T06:10:58.391Z,10.39
2023-03-25T06:13:26.336Z,10.00
2023-03-25T06:15:59.939Z,10.39
2023-03-25T06:18:27.765Z,10.36
2023-03-25T06:20:57.663Z,10.50
2023-03-25T06:23:26.428Z,10.13
2023-03-25T06:25:56.060Z,10.20
2023-03-25T06:28:24.150Z,10.27
2023-03-25T06:30:52.019Z,10.01
2023-03-25T06:33:42.352Z,10.10
2023-03-25T06:36:11.344Z,10.40
2023-03-25T06:38:39.730Z,10.43
2023-03-25T06:41:13.907Z,10.40
2023-03-25T06:43:43.022Z,10.53
2023-03-25T06:46:29.351Z,10.63
2023-03-25T06:49:18.056Z,10.63
2023-03-25T06:51:46.544Z,10.56
2023-03-25T06:54:14.958Z,10.41
2023-03-25T06:56:44.103Z,10.70
2023-03-25T06:59:11.963Z,10.77
2023-03-25T07:01:39.883Z,10.25
2023-03-25T07:04:07.735Z,10.83
2023-03-25T07:06:35.632Z,10.69
2023-03-25T07:09:03.724Z,10.73
2023-03-25T07:11:33.219Z,10.53
2023-03-25T07:14:02.409Z,10.70
2023-03-25T07:16:30.988Z,10.64
2023-03-25T07:18:59.149Z,10.49
2023-03-25T07:21:27.477Z,10.27
2023-03-25T07:23:56.306Z,10.59
2023-03-25T07:26:24.108Z,10.29
2023-03-25T07:28:51.953Z,10.03
2023-03-25T07:31:21.296Z,10.27
2023-03-25T07:33:49.248Z,10.55
2023-03-25T07:36:17.638Z,10.63
2023-03-25T07:38:46.216Z,10.70
2023-03-25T07:41:14.545Z,10.53
2023-03-25T07:43:59.664Z,10.37
2023-03-25T07:46:32.961Z,10.55
2023-03-25T07:49:00.955Z,10.07
2023-03-25T07:51:30.126Z,10.07
2023-03-25T07:54:04.938Z,10.40
2023-03-25T07:56:34.576Z,10.44
2023-03-25T07:59:02.916Z,10.47
2023-03-25T08:01:32.275Z,10.29
2023-03-25T08:04:00.400Z,10.55
2023-03-25T08:06:28.296Z,10.52
2023-03-25T08:08:56.696Z,10.62
2023-03-25T08:11:24.818Z,10.46
2023-03-25T08:13:52.691Z,10.69
2023-03-25T08:16:20.949Z,10.62
2023-03-25T08:18:52.899Z,10.93
2023-03-25T08:21:25.045Z,10.95
2023-03-25T08:23:54.878Z,11.11
2023-03-25T08:26:22.906Z,10.79
2023-03-25T08:28:50.993Z,10.73
2023-03-25T08:31:20.238Z,10.92
2023-03-25T08:33:48.280Z,10.76
2023-03-25T08:36:19.660Z,10.81
2023-03-25T08:38:48.020Z,10.81
2023-03-25T08:41:15.855Z,10.76
2023-03-25T08:43:45.065Z,10.81
2023-03-25T08:46:13.098Z,11.02
2023-03-25T08:48:41.396Z,10.92
2023-03-25T08:51:09.519Z,11.08
2023-03-25T08:53:38.727Z,11.49
2023-03-25T08:56:08.233Z,12.06
2023-03-25T08:58:36.184Z,12.20
2023-03-25T09:01:05.398Z,12.14
2023-03-25T09:03:34.060Z,12.24
2023-03-25T09:06:05.399Z,12.01
2023-03-25T09:08:33.802Z,12.13
2023-03-25T09:11:03.056Z,12.41
2023-03-25T09:13:30.925Z,12.31
2023-03-25T09:15:59.262Z,12.55
2023-03-25T09:18:27.340Z,12.45
2023-03-25T09:20:59.715Z,12.81
2023-03-25T09:23:28.022Z,12.99
2023-03-25T09:25:56.562Z,12.81
2023-03-25T09:28:25.732Z,12.42
2023-03-25T09:30:54.918Z,12.15
2023-03-25T09:33:22.847Z,12.05
2023-03-25T09:35:51.546Z,11.59
2023-03-25T09:38:19.533Z,11.67
2023-03-25T09:40:47.513Z,12.01
2023-03-25T09:43:30.914Z,12.22
2023-03-25T09:46:00.263Z,12.43
2023-03-25T09:48:34.321Z,12.57
2023-03-25T09:51:05.809Z,12.73
2023-03-25T09:53:39.890Z,12.96
2023-03-25T09:56:14.930Z,12.65
2023-03-25T09:58:46.349Z,12.43
2023-03-25T10:01:27.689Z,12.41
2023-03-25T10:04:03.238Z,12.44
2023-03-25T10:06:33.571Z,12.21
2023-03-25T10:09:07.451Z,12.19
2023-03-25T10:11:43.098Z,12.03
2023-03-25T10:14:15.704Z,12.43
2023-03-25T10:16:56.006Z,12.73
2023-03-25T10:19:31.169Z,13.14
2023-03-25T10:22:03.869Z,13.16
2023-03-25T10:24:35.384Z,13.65
2023-03-25T10:27:06.570Z,14.25
2023-03-25T10:29:40.376Z,14.29
2023-03-25T10:32:16.860Z,14.31
2023-03-25T10:34:49.907Z,13.83
2023-03-25T10:37:28.883Z,13.35
2023-03-25T10:40:00.561Z,13.08
2023-03-25T10:42:33.271Z,12.93
2023-03-25T10:45:02.613Z,13.18
2023-03-25T10:47:34.260Z,12.70
2023-03-25T10:50:04.559Z,12.77
2023-03-25T10:52:32.239Z,12.79
2023-03-25T10:55:00.521Z,13.15
2023-03-25T10:57:30.906Z,13.08
2023-03-25T11:00:08.971Z,13.05
2023-03-25T11:02:36.909Z,13.19
2023-03-25T11:05:08.559Z,13.57
2023-03-25T11:07:39.872Z,13.62
2023-03-25T11:10:16.138Z,13.83
2023-03-25T11:12:45.403Z,13.50
2023-03-25T11:15:17.647Z,13.06
2023-03-25T11:17:47.989Z,13.04
2023-03-25T11:20:21.511Z,13.19
2023-03-25T11:22:52.539Z,12.92
2023-03-25T11:25:25.663Z,12.92
2023-03-25T11:27:57.317Z,13.07
2023-03-25T11:30:27.332Z,13.09
2023-03-25T11:33:01.033Z,13.18
2023-03-25T11:35:31.435Z,13.10
2023-03-25T11:38:01.527Z,13.48
2023-03-25T11:40:31.882Z,13.89
2023-03-25T11:43:01.553Z,14.11
2023-03-25T11:45:37.708Z,14.07
2023-03-25T11:48:13.114Z,13.70
2023-03-25T11:50:47.396Z,13.67
2023-03-25T11:53:18.332Z,13.22
2023-03-25T11:55:48.006Z,13.07
2023-03-25T11:58:18.063Z,13.29
2023-03-25T12:00:50.212Z,13.51
2023-03-25T12:03:22.829Z,13.25
2023-03-25T12:06:02.001Z,13.04
2023-03-25T12:08:31.774Z,13.08
2023-03-25T12:11:05.507Z,13.20
2023-03-25T12:13:45.291Z,13.33
2023-03-25T12:16:29.115Z,13.50
2023-03-25T12:19:12.298Z,13.81
2023-03-25T12:22:03.675Z,13.67
2023-03-25T12:24:49.198Z,13.01
2023-03-25T12:27:32.152Z,13.01
2023-03-25T12:30:07.295Z,12.98
2023-03-25T12:32:43.789Z,13.17
2023-03-25T12:35:29.181Z,13.22
2023-03-25T12:38:20.648Z,13.60
2023-03-25T12:41:05.615Z,13.40
2023-03-25T12:43:41.261Z,13.50
2023-03-25T12:46:20.621Z,13.79
2023-03-25T12:49:05.135Z,13.55
2023-03-25T12:51:47.665Z,13.40
2023-03-25T12:54:33.515Z,13.92
2023-03-25T12:57:13.364Z,13.95
2023-03-25T13:00:09.063Z,13.72
2023-03-25T13:03:07.263Z,13.82
2023-03-25T13:05:42.876Z,13.72
2023-03-25T13:08:16.814Z,13.27
2023-03-25T13:10:47.071Z,13.09
2023-03-25T13:13:17.305Z,13.43
2023-03-25T13:15:48.125Z,13.34
2023-03-25T13:18:19.663Z,13.25
2023-03-25T13:20:54.472Z,12.96
2023-03-25T13:23:25.338Z,13.35
2023-03-25T13:25:57.658Z,12.96
2023-03-25T13:28:30.556Z,12.70
2023-03-25T13:30:59.598Z,12.71
2023-03-25T13:33:31.121Z,12.53
2023-03-25T13:36:07.962Z,12.61
2023-03-25T13:38:42.817Z,12.54
2023-03-25T13:41:14.081Z,12.33
2023-03-25T13:43:53.597Z,11.85
2023-03-25T13:46:25.796Z,12.31
2023-03-25T13:48:57.845Z,12.36
2023-03-25T13:51:27.403Z,12.31
2023-03-25T13:53:59.851Z,12.08
2023-03-25T13:56:58.847Z,12.53
2023-03-25T13:59:51.904Z,12.80
2023-03-25T14:02:42.982Z,12.58
2023-03-25T14:05:38.314Z,12.58
2023-03-25T14:08:26.425Z,12.37
2023-03-25T14:11:00.643Z,12.14
2023-03-25T14:13:33.333Z,11.66
2023-03-25T14:16:06.202Z,12.24
2023-03-25T14:18:42.016Z,11.78
2023-03-25T14:21:16.757Z,12.31
2023-03-25T14:23:46.312Z,12.22
2023-03-25T14:26:18.158Z,12.61
2023-03-25T14:28:47.747Z,12.78
2023-03-25T14:31:33.198Z,12.95
2023-03-25T14:34:14.614Z,12.98
2023-03-25T14:37:18.752Z,12.59
2023-03-25T14:39:48.004Z,12.88
2023-03-25T14:42:28.761Z,12.40
2023-03-25T14:45:29.939Z,13.01
2023-03-25T14:47:57.977Z,12.54
2023-03-25T14:50:35.456Z,12.97
2023-03-25T14:53:06.299Z,12.41
2023-03-25T14:55:42.125Z,12.94
2023-03-25T14:58:21.055Z,12.91
2023-03-25T15:00:55.303Z,13.13
2023-03-25T15:03:30.204Z,13.30
2023-03-25T15:06:00.682Z,12.94
2023-03-25T15:08:35.049Z,12.92
2023-03-25T15:11:10.307Z,12.76
2023-03-25T15:13:41.808Z,12.71
2023-03-25T15:16:19.515Z,12.68
2023-03-25T15:19:06.509Z,12.56
2023-03-25T15:21:50.739Z,12.62
2023-03-25T15:24:27.171Z,12.67
2023-03-25T15:26:58.748Z,12.76
2023-03-25T15:29:42.447Z,12.71
2023-03-25T15:32:25.949Z,12.90
2023-03-25T15:35:20.102Z,12.42
2023-03-25T15:38:06.969Z,12.23
2023-03-25T15:40:47.889Z,12.17
2023-03-25T15:43:59.582Z,12.07
2023-03-25T15:46:54.846Z,12.24
2023-03-25T15:50:02.153Z,11.94
2023-03-25T15:53:01.494Z,11.66
2023-03-25T15:55:34.579Z,11.05
2023-03-25T15:58:06.018Z,11.26
2023-03-25T16:00:39.553Z,11.25
2023-03-25T16:03:13.483Z,11.05
2023-03-25T16:05:48.468Z,10.83
2023-03-25T16:08:20.937Z,11.10
2023-03-25T16:10:49.006Z,11.14
2023-03-25T16:13:23.614Z,11.45
2023-03-25T16:15:57.009Z,11.43
2023-03-25T16:18:25.854Z,11.57
2023-03-25T16:20:57.756Z,11.37
2023-03-25T16:23:27.259Z,11.50
2023-03-25T16:25:56.236Z,11.32
2023-03-25T16:28:29.032Z,11.23
2023-03-25T16:30:58.403Z,11.15
2023-03-25T16:33:28.009Z,11.11
2023-03-25T16:36:00.317Z,11.24
2023-03-25T16:38:28.757Z,11.31
2023-03-25T16:41:01.854Z,11.28
2023-03-25T16:43:31.480Z,11.48
2023-03-25T16:46:03.028Z,10.80
2023-03-25T16:48:34.149Z,11.08
2023-03-25T16:51:08.121Z,10.73
2023-03-25T16:53:39.889Z,11.09
2023-03-25T16:56:23.209Z,11.07
2023-03-25T16:58:58.499Z,11.06
2023-03-25T17:01:29.257Z,10.78
2023-03-25T17:04:11.055Z,10.72
2023-03-25T17:06:41.497Z,10.52
2023-03-25T17:09:16.246Z,10.65
2023-03-25T17:11:45.812Z,10.61
2023-03-25T17:14:19.497Z,10.64
2023-03-25T17:16:50.960Z,10.69
2023-03-25T17:19:22.774Z,10.67
2023-03-25T17:22:04.630Z,10.90
2023-03-25T17:24:41.688Z,10.81
2023-03-25T17:27:21.440Z,10.83
2023-03-25T17:29:54.784Z,10.75
2023-03-25T17:32:24.484Z,10.55
2023-03-25T17:35:02.541Z,10.44
2023-03-25T17:37:31.925Z,10.17
2023-03-25T17:40:06.418Z,10.29
2023-03-25T17:42:37.922Z,10.48
2023-03-25T17:45:06.612Z,10.30
2023-03-25T17:47:35.777Z,10.22
2023-03-25T17:50:14.743Z,10.41
2023-03-25T17:52:42.744Z,10.55
2023-03-25T17:55:11.325Z,10.66
2023-03-25T17:57:39.664Z,10.15
2023-03-25T18:00:11.479Z,10.40
2023-03-25T18:02:41.649Z,10.62
2023-03-25T18:05:11.784Z,10.36
2023-03-25T18:07:39.720Z,10.55
2023-03-25T18:10:16.099Z,10.21
2023-03-25T18:12:44.156Z,10.03
2023-03-25T18:15:12.322Z,10.46
2023-03-25T18:17:41.692Z,10.34
2023-03-25T18:20:17.478Z,10.35
2023-03-25T18:22:46.383Z,10.31
2023-03-25T18:25:14.584Z,10.30
2023-03-25T18:27:44.232Z,10.29
2023-03-25T18:30:20.138Z,10.00
2023-03-25T18:32:49.379Z,9.71
2023-03-25T18:35:17.459Z,10.10
2023-03-25T18:37:46.472Z,10.15
2023-03-25T18:40:21.063Z,9.98
2023-03-25T18:42:49.082Z,10.29
2023-03-25T18:45:16.908Z,10.24
2023-03-25T18:47:44.833Z,10.45
2023-03-25T18:50:26.427Z,10.29
2023-03-25T18:52:54.431Z,10.12
2023-03-25T18:55:22.289Z,10.14
2023-03-25T18:57:50.176Z,10.11
2023-03-25T19:00:23.739Z,10.08
2023-03-25T19:02:54.539Z,10.24
2023-03-25T19:05:25.315Z,10.16
2023-03-25T19:07:53.856Z,10.32
2023-03-25T19:10:25.065Z,9.44
2023-03-25T19:12:52.902Z,10.12
2023-03-25T19:15:23.163Z,10.36
2023-03-25T19:17:50.833Z,10.10
2023-03-25T19:20:21.061Z,9.98
2023-03-25T19:22:50.084Z,10.28
2023-03-25T19:25:18.948Z,10.23
2023-03-25T19:27:47.801Z,10.25
2023-03-25T19:30:18.456Z,10.27
2023-03-25T19:32:47.019Z,10.58
2023-03-25T19:35:16.592Z,10.29
2023-03-25T19:37:47.368Z,10.13
2023-03-25T19:40:18.999Z,10.18
2023-03-25T19:42:48.203Z,10.08
2023-03-25T19:45:17.640Z,9.48
2023-03-25T19:47:46.376Z,10.10
2023-03-25T19:50:16.818Z,9.90
2023-03-25T19:52:45.497Z,10.07
2023-03-25T19:55:14.112Z,9.87
2023-03-25T19:57:44.759Z,9.89
2023-03-25T20:00:15.387Z,9.73
2023-03-25T20:02:44.876Z,9.97
2023-03-25T20:05:13.891Z,10.00
2023-03-25T20:07:43.051Z,9.80
2023-03-25T20:10:20.139Z,9.76
2023-03-25T20:12:50.455Z,9.57
2023-03-25T20:15:20.158Z,9.74
2023-03-25T20:17:49.771Z,9.80
2023-03-25T20:20:18.400Z,9.72
2023-03-25T20:22:48.282Z,9.71
2023-03-25T20:25:17.956Z,9.83
2023-03-25T20:27:46.405Z,9.72
2023-03-25T20:30:18.243Z,9.67
2023-03-25T20:32:48.481Z,9.62
2023-03-25T20:35:17.945Z,9.81
2023-03-25T20:37:48.629Z,9.70
2023-03-25T20:40:18.463Z,10.00
2023-03-25T20:42:47.871Z,9.77
2023-03-25T20:45:18.858Z,9.80
2023-03-25T20:47:46.713Z,9.72
2023-03-25T20:50:16.427Z,9.58
2023-03-25T20:52:44.902Z,9.61
2023-03-25T20:55:14.615Z,9.61
2023-03-25T20:57:42.686Z,9.40
2023-03-25T21:00:14.190Z,9.62
2023-03-25T21:02:44.901Z,9.35
2023-03-25T21:05:12.961Z,9.50
2023-03-25T21:07:41.306Z,9.39
2023-03-25T21:10:10.744Z,9.35
2023-03-25T21:12:44.006Z,9.40
2023-03-25T21:15:14.674Z,9.44
2023-03-25T21:17:44.482Z,9.55
2023-03-25T21:20:13.078Z,9.57
2023-03-25T21:22:44.202Z,9.37
2023-03-25T21:25:14.100Z,9.49
2023-03-25T21:27:42.334Z,9.43
2023-03-25T21:30:11.338Z,9.45
2023-03-25T21:32:39.371Z,9.65
2023-03-25T21:35:10.352Z,9.60
2023-03-25T21:37:39.926Z,9.51
2023-03-25T21:40:11.575Z,9.53
2023-03-25T21:42:41.280Z,9.43
2023-03-25T21:45:11.478Z,9.62
2023-03-25T21:47:39.367Z,9.67
2023-03-25T21:50:10.859Z,9.73
2023-03-25T21:52:42.928Z,9.72
2023-03-25T21:55:12.544Z,9.76
2023-03-25T21:57:44.365Z,10.06
2023-03-25T22:00:16.962Z,9.95
2023-03-25T22:02:46.474Z,10.13
2023-03-25T22:05:17.301Z,9.84
2023-03-25T22:07:46.650Z,9.77
2023-03-25T22:10:14.569Z,9.76
2023-03-25T22:12:42.419Z,9.74
2023-03-25T22:15:11.425Z,9.61
2023-03-25T22:17:39.254Z,9.65
2023-03-25T22:20:08.630Z,9.38
2023-03-25T22:22:37.926Z,9.53
2023-03-25T22:25:06.841Z,9.64
2023-03-25T22:27:34.806Z,9.71
2023-03-25T22:30:02.677Z,9.58
2023-03-25T22:32:30.669Z,9.53
2023-03-25T22:34:58.577Z,9.87
2023-03-25T22:37:26.439Z,9.82
2023-03-25T22:39:55.822Z,9.99
2023-03-25T22:42:25.685Z,9.89
2023-03-25T22:44:53.553Z,9.89
2023-03-25T22:47:21.679Z,9.88
2023-03-25T22:49:49.494Z,9.82
2023-03-25T22:52:17.457Z,9.93
2023-03-25T22:54:45.387Z,9.63
2023-03-25T22:57:14.763Z,9.86
2023-03-25T22:59:42.654Z,9.72
2023-03-25T23:02:13.110Z,9.85
2023-03-25T23:04:41.204Z,9.86
2023-03-25T23:07:09.110Z,9.72
2023-03-25T23:09:42.386Z,9.83
2023-03-25T23:12:11.582Z,9.92
2023-03-25T23:14:42.434Z,9.92
2023-03-25T23:17:11.926Z,9.99
2023-03-25T23:19:39.978Z,10.23
2023-03-25T23:22:08.398Z,10.20
2023-03-25T23:24:36.985Z,9.97
2023-03-25T23:27:05.791Z,9.78
2023-03-25T23:29:35.682Z,9.66
2023-03-25T23:32:05.232Z,9.82
2023-03-25T23:34:33.869Z,9.77
2023-03-25T23:37:02.115Z,10.15
2023-03-25T23:39:30.076Z,10.15
2023-03-25T23:41:58.104Z,10.13
2023-03-25T23:44:26.038Z,10.38
2023-03-25T23:46:53.890Z,10.28
2023-03-25T23:49:23.222Z,10.29
2023-03-25T23:51:51.300Z,10.20
2023-03-25T23:54:19.197Z,10.21
2023-03-25T23:56:47.159Z,9.60
2023-03-25T23:59:15.197Z,9.95
